sensor_id;sensor_type;location;lat;lon;timestamp;temperature;humidity
35495;DHT22;75532;49.300;6.846;2024-01-30T00:01:41;22.00;44.80
35495;DHT22;75532;49.300;6.846;2024-01-30T00:04:42;22.00;44.90
35495;DHT22;75532;49.300;6.846;2024-01-30T00:07:42;22.00;44.80
35495;DHT22;75532;49.300;6.846;2024-01-30T00:10:43;22.00;44.60
35495;DHT22;75532;49.300;6.846;2024-01-30T00:13:43;22.00;44.90
35495;DHT22;75532;49.300;6.846;2024-01-30T00:16:44;22.00;44.80
35495;DHT22;75532;49.300;6.846;2024-01-30T00:19:45;22.00;44.70
35495;DHT22;75532;49.300;6.846;2024-01-30T00:22:46;22.00;44.90
35495;DHT22;75532;49.300;6.846;2024-01-30T00:25:46;22.00;44.70
35495;DHT22;75532;49.300;6.846;2024-01-30T00:28:47;22.00;44.80
35495;DHT22;75532;49.300;6.846;2024-01-30T00:31:47;22.00;44.60
35495;DHT22;75532;49.300;6.846;2024-01-30T00:34:48;22.00;44.70
35495;DHT22;75532;49.300;6.846;2024-01-30T00:37:48;22.00;44.50
35495;DHT22;75532;49.300;6.846;2024-01-30T00:40:49;22.00;44.60
35495;DHT22;75532;49.300;6.846;2024-01-30T00:43:49;22.00;44.60
35495;DHT22;75532;49.300;6.846;2024-01-30T00:46:50;22.00;44.50
35495;DHT22;75532;49.300;6.846;2024-01-30T00:49:51;22.00;44.50
35495;DHT22;75532;49.300;6.846;2024-01-30T00:52:51;22.00;44.50
35495;DHT22;75532;49.300;6.846;2024-01-30T00:55:52;22.00;44.50
35495;DHT22;75532;49.300;6.846;2024-01-30T00:58:52;22.00;44.40
35495;DHT22;75532;49.300;6.846;2024-01-30T01:01:53;22.00;44.50
35495;DHT22;75532;49.300;6.846;2024-01-30T01:04:53;22.00;44.40
35495;DHT22;75532;49.300;6.846;2024-01-30T01:07:54;22.00;44.50
35495;DHT22;75532;49.300;6.846;2024-01-30T01:10:54;22.00;44.40
35495;DHT22;75532;49.300;6.846;2024-01-30T01:13:55;22.00;44.40
35495;DHT22;75532;49.300;6.846;2024-01-30T01:16:55;22.00;44.40
35495;DHT22;75532;49.300;6.846;2024-01-30T01:19:56;22.00;44.50
35495;DHT22;75532;49.300;6.846;2024-01-30T01:22:57;22.00;44.60
35495;DHT22;75532;49.300;6.846;2024-01-30T01:25:58;22.00;44.90
35495;DHT22;75532;49.300;6.846;2024-01-30T01:29:00;22.00;44.80
35495;DHT22;75532;49.300;6.846;2024-01-30T01:32:00;22.00;44.90
35495;DHT22;75532;49.300;6.846;2024-01-30T01:35:01;22.00;44.80
35495;DHT22;75532;49.300;6.846;2024-01-30T01:38:02;22.00;44.60
35495;DHT22;75532;49.300;6.846;2024-01-30T01:41:03;22.00;44.90
35495;DHT22;75532;49.300;6.846;2024-01-30T01:44:03;22.00;44.60
35495;DHT22;75532;49.300;6.846;2024-01-30T01:47:04;22.00;44.50
35495;DHT22;75532;49.300;6.846;2024-01-30T01:50:05;22.00;44.50
35495;DHT22;75532;49.300;6.846;2024-01-30T01:53:07;22.00;44.50
35495;DHT22;75532;49.300;6.846;2024-01-30T01:56:08;22.00;44.50
35495;DHT22;75532;49.300;6.846;2024-01-30T01:59:09;22.00;44.50
35495;DHT22;75532;49.300;6.846;2024-01-30T02:02:11;22.00;44.60
35495;DHT22;75532;49.300;6.846;2024-01-30T02:05:14;22.00;44.60
35495;DHT22;75532;49.300;6.846;2024-01-30T02:08:14;22.00;44.50
35495;DHT22;75532;49.300;6.846;2024-01-30T02:11:16;22.00;44.50
35495;DHT22;75532;49.300;6.846;2024-01-30T02:14:17;21.90;44.40
35495;DHT22;75532;49.300;6.846;2024-01-30T02:17:17;21.90;44.30
35495;DHT22;75532;49.300;6.846;2024-01-30T02:20:18;21.90;44.40
35495;DHT22;75532;49.300;6.846;2024-01-30T02:23:19;21.90;44.30
35495;DHT22;75532;49.300;6.846;2024-01-30T02:26:20;21.90;44.40
35495;DHT22;75532;49.300;6.846;2024-01-30T02:29:21;21.90;44.40
35495;DHT22;75532;49.300;6.846;2024-01-30T02:32:21;21.90;44.40
35495;DHT22;75532;49.300;6.846;2024-01-30T02:35:22;21.90;44.50
35495;DHT22;75532;49.300;6.846;2024-01-30T02:38:22;21.90;44.70
35495;DHT22;75532;49.300;6.846;2024-01-30T02:41:27;21.90;44.70
35495;DHT22;75532;49.300;6.846;2024-01-30T02:44:27;21.90;44.70
35495;DHT22;75532;49.300;6.846;2024-01-30T02:47:28;21.90;44.90
35495;DHT22;75532;49.300;6.846;2024-01-30T02:50:28;21.90;45.10
35495;DHT22;75532;49.300;6.846;2024-01-30T02:53:29;21.90;45.00
35495;DHT22;75532;49.300;6.846;2024-01-30T02:56:29;21.90;45.10
35495;DHT22;75532;49.300;6.846;2024-01-30T02:59:30;22.00;45.20
35495;DHT22;75532;49.300;6.846;2024-01-30T03:02:33;22.00;45.10
35495;DHT22;75532;49.300;6.846;2024-01-30T03:05:34;22.00;45.00
35495;DHT22;75532;49.300;6.846;2024-01-30T03:08:35;21.90;44.80
35495;DHT22;75532;49.300;6.846;2024-01-30T03:11:35;21.90;44.70
35495;DHT22;75532;49.300;6.846;2024-01-30T03:14:36;21.90;44.70
35495;DHT22;75532;49.300;6.846;2024-01-30T03:17:36;21.90;44.70
35495;DHT22;75532;49.300;6.846;2024-01-30T03:20:37;21.90;44.70
35495;DHT22;75532;49.300;6.846;2024-01-30T03:23:38;22.00;44.60
35495;DHT22;75532;49.300;6.846;2024-01-30T03:26:38;21.90;44.70
35495;DHT22;75532;49.300;6.846;2024-01-30T03:29:39;22.00;44.60
35495;DHT22;75532;49.300;6.846;2024-01-30T03:32:39;21.90;44.60
35495;DHT22;75532;49.300;6.846;2024-01-30T03:35:40;21.90;44.60
35495;DHT22;75532;49.300;6.846;2024-01-30T03:38:40;21.90;44.50
35495;DHT22;75532;49.300;6.846;2024-01-30T03:41:44;21.90;44.40
35495;DHT22;75532;49.300;6.846;2024-01-30T03:44:44;21.90;44.40
35495;DHT22;75532;49.300;6.846;2024-01-30T03:47:45;21.90;44.50
35495;DHT22;75532;49.300;6.846;2024-01-30T03:50:46;21.90;44.40
35495;DHT22;75532;49.300;6.846;2024-01-30T03:53:46;21.90;44.50
35495;DHT22;75532;49.300;6.846;2024-01-30T03:56:47;21.90;44.50
35495;DHT22;75532;49.300;6.846;2024-01-30T03:59:47;21.90;44.60
35495;DHT22;75532;49.300;6.846;2024-01-30T04:02:48;21.90;44.60
35495;DHT22;75532;49.300;6.846;2024-01-30T04:05:48;21.90;44.60
35495;DHT22;75532;49.300;6.846;2024-01-30T04:08:49;21.90;44.70
35495;DHT22;75532;49.300;6.846;2024-01-30T04:11:50;21.90;44.70
35495;DHT22;75532;49.300;6.846;2024-01-30T04:14:50;21.90;44.60
35495;DHT22;75532;49.300;6.846;2024-01-30T04:17:51;21.90;44.70
35495;DHT22;75532;49.300;6.846;2024-01-30T04:20:51;21.90;44.60
35495;DHT22;75532;49.300;6.846;2024-01-30T04:23:52;21.90;44.80
35495;DHT22;75532;49.300;6.846;2024-01-30T04:26:53;21.90;44.70
35495;DHT22;75532;49.300;6.846;2024-01-30T04:29:53;21.90;44.50
35495;DHT22;75532;49.300;6.846;2024-01-30T04:32:54;21.90;44.70
35495;DHT22;75532;49.300;6.846;2024-01-30T04:35:55;21.90;44.70
35495;DHT22;75532;49.300;6.846;2024-01-30T04:38:55;21.90;44.60
35495;DHT22;75532;49.300;6.846;2024-01-30T04:41:56;21.90;44.50
35495;DHT22;75532;49.300;6.846;2024-01-30T04:44:56;21.90;44.50
35495;DHT22;75532;49.300;6.846;2024-01-30T04:47:57;21.90;44.50
35495;DHT22;75532;49.300;6.846;2024-01-30T04:50:57;21.90;44.60
35495;DHT22;75532;49.300;6.846;2024-01-30T04:53:58;21.90;45.10
35495;DHT22;75532;49.300;6.846;2024-01-30T04:56:59;21.90;45.10
35495;DHT22;75532;49.300;6.846;2024-01-30T04:59:59;21.90;45.10
35495;DHT22;75532;49.300;6.846;2024-01-30T05:03:00;21.90;44.80
35495;DHT22;75532;49.300;6.846;2024-01-30T05:06:01;21.90;44.60
35495;DHT22;75532;49.300;6.846;2024-01-30T05:09:01;21.90;44.60
35495;DHT22;75532;49.300;6.846;2024-01-30T05:12:02;21.90;44.50
35495;DHT22;75532;49.300;6.846;2024-01-30T05:15:03;21.90;43.70
35495;DHT22;75532;49.300;6.846;2024-01-30T05:18:04;21.90;44.80
35495;DHT22;75532;49.300;6.846;2024-01-30T05:21:05;21.90;45.30
35495;DHT22;75532;49.300;6.846;2024-01-30T05:24:06;21.90;44.80
35495;DHT22;75532;49.300;6.846;2024-01-30T05:27:07;21.90;46.00
35495;DHT22;75532;49.300;6.846;2024-01-30T05:30:08;21.90;45.50
35495;DHT22;75532;49.300;6.846;2024-01-30T05:33:09;21.90;45.50
35495;DHT22;75532;49.300;6.846;2024-01-30T05:36:12;21.90;45.00
35495;DHT22;75532;49.300;6.846;2024-01-30T05:39:13;21.90;45.30
35495;DHT22;75532;49.300;6.846;2024-01-30T05:42:14;21.90;46.20
35495;DHT22;75532;49.300;6.846;2024-01-30T05:45:17;21.90;47.10
35495;DHT22;75532;49.300;6.846;2024-01-30T05:48:17;21.90;46.40
35495;DHT22;75532;49.300;6.846;2024-01-30T05:51:18;21.90;46.50
35495;DHT22;75532;49.300;6.846;2024-01-30T05:54:18;22.00;46.60
35495;DHT22;75532;49.300;6.846;2024-01-30T05:57:19;21.90;47.10
35495;DHT22;75532;49.300;6.846;2024-01-30T06:00:20;21.90;47.30
35495;DHT22;75532;49.300;6.846;2024-01-30T06:03:20;21.90;47.20
35495;DHT22;75532;49.300;6.846;2024-01-30T06:06:21;21.90;46.80
35495;DHT22;75532;49.300;6.846;2024-01-30T06:09:21;21.90;46.90
35495;DHT22;75532;49.300;6.846;2024-01-30T06:12:22;21.90;47.10
35495;DHT22;75532;49.300;6.846;2024-01-30T06:15:22;21.90;47.70
35495;DHT22;75532;49.300;6.846;2024-01-30T06:18:23;21.90;47.40
35495;DHT22;75532;49.300;6.846;2024-01-30T06:21:24;21.90;47.30
35495;DHT22;75532;49.300;6.846;2024-01-30T06:24:24;21.90;47.30
35495;DHT22;75532;49.300;6.846;2024-01-30T06:27:25;21.90;47.50
35495;DHT22;75532;49.300;6.846;2024-01-30T06:30:25;21.90;47.50
35495;DHT22;75532;49.300;6.846;2024-01-30T06:33:26;21.90;47.30
35495;DHT22;75532;49.300;6.846;2024-01-30T06:36:26;21.90;47.50
35495;DHT22;75532;49.300;6.846;2024-01-30T06:39:27;21.90;47.50
35495;DHT22;75532;49.300;6.846;2024-01-30T06:42:28;21.90;47.60
35495;DHT22;75532;49.300;6.846;2024-01-30T06:45:28;21.90;47.40
35495;DHT22;75532;49.300;6.846;2024-01-30T06:48:29;21.90;47.30
35495;DHT22;75532;49.300;6.846;2024-01-30T06:51:29;21.90;47.40
35495;DHT22;75532;49.300;6.846;2024-01-30T06:54:30;21.90;47.40
35495;DHT22;75532;49.300;6.846;2024-01-30T06:57:30;21.90;47.40
35495;DHT22;75532;49.300;6.846;2024-01-30T07:00:31;21.90;47.50
35495;DHT22;75532;49.300;6.846;2024-01-30T07:03:31;21.90;47.40
35495;DHT22;75532;49.300;6.846;2024-01-30T07:06:32;21.90;47.40
35495;DHT22;75532;49.300;6.846;2024-01-30T07:09:33;21.80;47.40
35495;DHT22;75532;49.300;6.846;2024-01-30T07:12:34;21.90;47.40
35495;DHT22;75532;49.300;6.846;2024-01-30T07:15:35;21.80;47.30
35495;DHT22;75532;49.300;6.846;2024-01-30T07:18:37;21.80;47.10
35495;DHT22;75532;49.300;6.846;2024-01-30T07:21:38;21.80;47.20
35495;DHT22;75532;49.300;6.846;2024-01-30T07:24:44;21.80;47.00
35495;DHT22;75532;49.300;6.846;2024-01-30T07:27:49;21.80;45.60
35495;DHT22;75532;49.300;6.846;2024-01-30T07:30:50;21.70;44.70
35495;DHT22;75532;49.300;6.846;2024-01-30T07:33:51;21.60;44.30
35495;DHT22;75532;49.300;6.846;2024-01-30T07:36:51;21.60;44.20
35495;DHT22;75532;49.300;6.846;2024-01-30T07:39:52;21.60;44.40
35495;DHT22;75532;49.300;6.846;2024-01-30T07:42:54;21.60;43.10
35495;DHT22;75532;49.300;6.846;2024-01-30T07:45:55;21.50;42.50
35495;DHT22;75532;49.300;6.846;2024-01-30T07:48:58;21.50;43.00
35495;DHT22;75532;49.300;6.846;2024-01-30T07:52:00;21.60;43.20
35495;DHT22;75532;49.300;6.846;2024-01-30T07:55:01;21.60;43.60
35495;DHT22;75532;49.300;6.846;2024-01-30T07:58:01;21.60;43.80
35495;DHT22;75532;49.300;6.846;2024-01-30T08:01:02;21.60;44.00
35495;DHT22;75532;49.300;6.846;2024-01-30T08:04:03;21.70;44.20
35495;DHT22;75532;49.300;6.846;2024-01-30T08:07:04;21.70;44.30
35495;DHT22;75532;49.300;6.846;2024-01-30T08:10:05;21.70;44.30
35495;DHT22;75532;49.300;6.846;2024-01-30T08:13:05;21.70;44.40
35495;DHT22;75532;49.300;6.846;2024-01-30T08:16:06;21.70;44.50
35495;DHT22;75532;49.300;6.846;2024-01-30T08:19:07;21.70;44.50
35495;DHT22;75532;49.300;6.846;2024-01-30T08:22:08;21.80;44.50
35495;DHT22;75532;49.300;6.846;2024-01-30T08:25:08;21.70;44.70
35495;DHT22;75532;49.300;6.846;2024-01-30T08:28:10;21.70;44.30
35495;DHT22;75532;49.300;6.846;2024-01-30T08:31:11;21.60;38.80
35495;DHT22;75532;49.300;6.846;2024-01-30T08:34:12;21.40;37.40
35495;DHT22;75532;49.300;6.846;2024-01-30T08:37:13;21.30;36.40
35495;DHT22;75532;49.300;6.846;2024-01-30T08:40:16;21.20;37.20
35495;DHT22;75532;49.300;6.846;2024-01-30T08:43:17;21.20;39.70
35495;DHT22;75532;49.300;6.846;2024-01-30T08:46:18;21.30;40.20
35495;DHT22;75532;49.300;6.846;2024-01-30T08:49:20;21.30;40.80
35495;DHT22;75532;49.300;6.846;2024-01-30T08:52:20;21.40;41.10
35495;DHT22;75532;49.300;6.846;2024-01-30T08:55:21;21.40;41.30
35495;DHT22;75532;49.300;6.846;2024-01-30T08:58:22;21.50;41.50
35495;DHT22;75532;49.300;6.846;2024-01-30T09:01:22;21.50;41.70
35495;DHT22;75532;49.300;6.846;2024-01-30T09:04:23;21.50;41.80
35495;DHT22;75532;49.300;6.846;2024-01-30T09:07:23;21.50;41.90
35495;DHT22;75532;49.300;6.846;2024-01-30T09:10:24;21.60;42.00
35495;DHT22;75532;49.300;6.846;2024-01-30T09:13:25;21.60;42.10
35495;DHT22;75532;49.300;6.846;2024-01-30T09:16:25;21.50;42.10
35495;DHT22;75532;49.300;6.846;2024-01-30T09:19:26;21.60;42.20
35495;DHT22;75532;49.300;6.846;2024-01-30T09:22:27;21.60;42.20
35495;DHT22;75532;49.300;6.846;2024-01-30T09:25:27;21.50;42.20
35495;DHT22;75532;49.300;6.846;2024-01-30T09:28:29;21.50;42.40
35495;DHT22;75532;49.300;6.846;2024-01-30T09:31:29;21.50;42.40
35495;DHT22;75532;49.300;6.846;2024-01-30T09:34:30;21.60;42.70
35495;DHT22;75532;49.300;6.846;2024-01-30T09:37:30;21.60;42.60
35495;DHT22;75532;49.300;6.846;2024-01-30T09:40:31;21.60;42.80
35495;DHT22;75532;49.300;6.846;2024-01-30T09:43:33;21.60;43.00
35495;DHT22;75532;49.300;6.846;2024-01-30T09:46:35;21.60;42.90
35495;DHT22;75532;49.300;6.846;2024-01-30T09:49:36;21.50;43.00
35495;DHT22;75532;49.300;6.846;2024-01-30T09:52:39;21.50;43.00
35495;DHT22;75532;49.300;6.846;2024-01-30T09:55:42;21.60;43.30
35495;DHT22;75532;49.300;6.846;2024-01-30T09:58:43;21.60;43.40
35495;DHT22;75532;49.300;6.846;2024-01-30T10:01:44;21.60;43.50
35495;DHT22;75532;49.300;6.846;2024-01-30T10:04:50;21.60;43.50
35495;DHT22;75532;49.300;6.846;2024-01-30T10:07:54;21.60;43.60
35495;DHT22;75532;49.300;6.846;2024-01-30T10:10:57;21.50;43.40
35495;DHT22;75532;49.300;6.846;2024-01-30T10:13:57;21.60;43.60
35495;DHT22;75532;49.300;6.846;2024-01-30T10:16:58;21.60;43.60
35495;DHT22;75532;49.300;6.846;2024-01-30T10:19:59;21.60;43.80
35495;DHT22;75532;49.300;6.846;2024-01-30T10:23:00;21.60;43.80
35495;DHT22;75532;49.300;6.846;2024-01-30T10:26:02;21.50;43.80
35495;DHT22;75532;49.300;6.846;2024-01-30T10:29:02;21.50;43.70
35495;DHT22;75532;49.300;6.846;2024-01-30T10:32:04;21.50;43.70
35495;DHT22;75532;49.300;6.846;2024-01-30T10:35:05;21.60;43.80
35495;DHT22;75532;49.300;6.846;2024-01-30T10:38:08;21.50;43.90
35495;DHT22;75532;49.300;6.846;2024-01-30T10:41:13;21.50;43.80
35495;DHT22;75532;49.300;6.846;2024-01-30T10:44:19;21.50;43.90
35495;DHT22;75532;49.300;6.846;2024-01-30T10:47:26;21.50;43.80
35495;DHT22;75532;49.300;6.846;2024-01-30T10:50:27;21.50;43.90
35495;DHT22;75532;49.300;6.846;2024-01-30T10:53:29;21.50;43.90
35495;DHT22;75532;49.300;6.846;2024-01-30T10:56:32;21.60;44.00
35495;DHT22;75532;49.300;6.846;2024-01-30T10:59:33;21.50;44.00
35495;DHT22;75532;49.300;6.846;2024-01-30T11:02:34;21.60;44.00
35495;DHT22;75532;49.300;6.846;2024-01-30T11:05:35;21.60;44.10
35495;DHT22;75532;49.300;6.846;2024-01-30T11:08:36;21.60;44.00
35495;DHT22;75532;49.300;6.846;2024-01-30T11:11:56;21.60;44.00
35495;DHT22;75532;49.300;6.846;2024-01-30T11:15:06;21.60;44.10
35495;DHT22;75532;49.300;6.846;2024-01-30T11:18:07;21.60;44.00
35495;DHT22;75532;49.300;6.846;2024-01-30T11:21:08;21.50;44.20
35495;DHT22;75532;49.300;6.846;2024-01-30T11:24:08;21.50;44.20
35495;DHT22;75532;49.300;6.846;2024-01-30T11:27:09;21.60;44.20
35495;DHT22;75532;49.300;6.846;2024-01-30T11:30:30;21.50;44.20
35495;DHT22;75532;49.300;6.846;2024-01-30T11:33:31;21.60;44.10
35495;DHT22;75532;49.300;6.846;2024-01-30T11:36:32;21.50;44.20
35495;DHT22;75532;49.300;6.846;2024-01-30T11:39:36;21.50;44.20
35495;DHT22;75532;49.300;6.846;2024-01-30T11:42:37;21.50;44.20
35495;DHT22;75532;49.300;6.846;2024-01-30T11:45:39;21.60;44.20
35495;DHT22;75532;49.300;6.846;2024-01-30T11:48:41;21.50;44.10
35495;DHT22;75532;49.300;6.846;2024-01-30T11:51:41;21.60;44.20
35495;DHT22;75532;49.300;6.846;2024-01-30T11:54:42;21.60;44.10
35495;DHT22;75532;49.300;6.846;2024-01-30T11:57:43;21.60;44.10
35495;DHT22;75532;49.300;6.846;2024-01-30T12:00:55;21.50;44.00
35495;DHT22;75532;49.300;6.846;2024-01-30T12:03:56;21.60;44.10
35495;DHT22;75532;49.300;6.846;2024-01-30T12:06:57;21.60;44.20
35495;DHT22;75532;49.300;6.846;2024-01-30T12:09:58;21.50;44.30
35495;DHT22;75532;49.300;6.846;2024-01-30T12:12:58;21.50;44.30
35495;DHT22;75532;49.300;6.846;2024-01-30T12:16:00;21.50;44.30
35495;DHT22;75532;49.300;6.846;2024-01-30T12:19:01;21.50;44.30
35495;DHT22;75532;49.300;6.846;2024-01-30T12:22:02;21.50;44.30
35495;DHT22;75532;49.300;6.846;2024-01-30T12:25:05;21.50;44.20
35495;DHT22;75532;49.300;6.846;2024-01-30T12:28:05;21.50;44.20
35495;DHT22;75532;49.300;6.846;2024-01-30T12:31:06;21.50;44.30
35495;DHT22;75532;49.300;6.846;2024-01-30T12:34:07;21.50;44.30
35495;DHT22;75532;49.300;6.846;2024-01-30T12:37:08;21.50;44.20
35495;DHT22;75532;49.300;6.846;2024-01-30T12:40:11;21.50;44.20
35495;DHT22;75532;49.300;6.846;2024-01-30T12:43:13;21.50;44.30
35495;DHT22;75532;49.300;6.846;2024-01-30T12:46:17;21.50;44.40
35495;DHT22;75532;49.300;6.846;2024-01-30T12:49:18;21.50;44.40
35495;DHT22;75532;49.300;6.846;2024-01-30T12:52:18;21.50;44.50
35495;DHT22;75532;49.300;6.846;2024-01-30T12:55:19;21.50;44.50
35495;DHT22;75532;49.300;6.846;2024-01-30T12:58:20;21.50;44.60
35495;DHT22;75532;49.300;6.846;2024-01-30T13:01:21;21.50;44.60
35495;DHT22;75532;49.300;6.846;2024-01-30T13:04:22;21.50;44.60
35495;DHT22;75532;49.300;6.846;2024-01-30T13:07:23;21.50;44.60
35495;DHT22;75532;49.300;6.846;2024-01-30T13:10:23;21.50;44.60
35495;DHT22;75532;49.300;6.846;2024-01-30T13:13:24;21.40;44.20
35495;DHT22;75532;49.300;6.846;2024-01-30T13:16:24;21.40;44.00
35495;DHT22;75532;49.300;6.846;2024-01-30T13:19:25;21.40;44.50
35495;DHT22;75532;49.300;6.846;2024-01-30T13:22:26;21.40;44.50
35495;DHT22;75532;49.300;6.846;2024-01-30T13:25:26;21.40;44.60
35495;DHT22;75532;49.300;6.846;2024-01-30T13:28:27;21.40;44.70
35495;DHT22;75532;49.300;6.846;2024-01-30T13:31:27;21.50;44.70
35495;DHT22;75532;49.300;6.846;2024-01-30T13:34:28;21.40;44.80
35495;DHT22;75532;49.300;6.846;2024-01-30T13:37:28;21.50;44.90
35495;DHT22;75532;49.300;6.846;2024-01-30T13:40:30;21.50;44.80
35495;DHT22;75532;49.300;6.846;2024-01-30T13:43:30;21.50;44.80
35495;DHT22;75532;49.300;6.846;2024-01-30T13:46:31;21.50;45.10
35495;DHT22;75532;49.300;6.846;2024-01-30T13:49:32;21.50;45.00
35495;DHT22;75532;49.300;6.846;2024-01-30T13:52:32;21.50;44.80
35495;DHT22;75532;49.300;6.846;2024-01-30T13:55:33;21.50;44.90
35495;DHT22;75532;49.300;6.846;2024-01-30T13:58:34;21.50;44.90
35495;DHT22;75532;49.300;6.846;2024-01-30T14:01:36;21.40;44.80
35495;DHT22;75532;49.300;6.846;2024-01-30T14:04:37;21.50;45.40
35495;DHT22;75532;49.300;6.846;2024-01-30T14:07:37;21.50;44.90
35495;DHT22;75532;49.300;6.846;2024-01-30T14:10:39;21.40;44.80
35495;DHT22;75532;49.300;6.846;2024-01-30T14:13:40;21.50;44.80
35495;DHT22;75532;49.300;6.846;2024-01-30T14:16:41;21.40;44.80
35495;DHT22;75532;49.300;6.846;2024-01-30T14:19:41;21.40;44.80
35495;DHT22;75532;49.300;6.846;2024-01-30T14:22:42;21.50;44.80
35495;DHT22;75532;49.300;6.846;2024-01-30T14:25:42;21.40;44.80
35495;DHT22;75532;49.300;6.846;2024-01-30T14:28:43;21.40;44.70
35495;DHT22;75532;49.300;6.846;2024-01-30T14:31:44;21.40;44.80
35495;DHT22;75532;49.300;6.846;2024-01-30T14:34:44;21.40;44.90
35495;DHT22;75532;49.300;6.846;2024-01-30T14:37:45;21.40;44.90
35495;DHT22;75532;49.300;6.846;2024-01-30T14:40:46;21.40;45.00
35495;DHT22;75532;49.300;6.846;2024-01-30T14:43:46;21.50;45.00
35495;DHT22;75532;49.300;6.846;2024-01-30T14:46:48;21.40;44.90
35495;DHT22;75532;49.300;6.846;2024-01-30T14:49:49;21.50;44.90
35495;DHT22;75532;49.300;6.846;2024-01-30T14:52:49;21.40;44.90
35495;DHT22;75532;49.300;6.846;2024-01-30T14:55:50;21.50;45.00
35495;DHT22;75532;49.300;6.846;2024-01-30T14:58:51;21.40;44.90
35495;DHT22;75532;49.300;6.846;2024-01-30T15:01:51;21.50;45.00
35495;DHT22;75532;49.300;6.846;2024-01-30T15:04:52;21.40;44.90
35495;DHT22;75532;49.300;6.846;2024-01-30T15:07:53;21.50;45.00
35495;DHT22;75532;49.300;6.846;2024-01-30T15:10:53;21.40;44.90
35495;DHT22;75532;49.300;6.846;2024-01-30T15:13:54;21.40;44.90
35495;DHT22;75532;49.300;6.846;2024-01-30T15:16:54;21.50;44.90
35495;DHT22;75532;49.300;6.846;2024-01-30T15:19:55;21.40;44.90
35495;DHT22;75532;49.300;6.846;2024-01-30T15:22:55;21.40;44.90
35495;DHT22;75532;49.300;6.846;2024-01-30T15:25:56;21.40;44.90
35495;DHT22;75532;49.300;6.846;2024-01-30T15:28:57;21.40;45.20
35495;DHT22;75532;49.300;6.846;2024-01-30T15:31:57;21.50;45.00
35495;DHT22;75532;49.300;6.846;2024-01-30T15:35:00;21.40;44.90
35495;DHT22;75532;49.300;6.846;2024-01-30T15:38:04;21.50;44.90
35495;DHT22;75532;49.300;6.846;2024-01-30T15:41:09;21.50;45.00
35495;DHT22;75532;49.300;6.846;2024-01-30T15:44:09;21.50;45.10
35495;DHT22;75532;49.300;6.846;2024-01-30T15:47:10;21.50;45.00
35495;DHT22;75532;49.300;6.846;2024-01-30T15:50:11;21.50;45.10
35495;DHT22;75532;49.300;6.846;2024-01-30T15:53:12;21.50;45.20
35495;DHT22;75532;49.300;6.846;2024-01-30T15:56:12;21.50;45.00
35495;DHT22;75532;49.300;6.846;2024-01-30T15:59:13;21.50;44.60
35495;DHT22;75532;49.300;6.846;2024-01-30T16:02:14;21.50;44.60
35495;DHT22;75532;49.300;6.846;2024-01-30T16:05:15;21.50;44.60
35495;DHT22;75532;49.300;6.846;2024-01-30T16:08:15;21.50;44.70
35495;DHT22;75532;49.300;6.846;2024-01-30T16:11:17;21.50;45.00
35495;DHT22;75532;49.300;6.846;2024-01-30T16:14:18;21.60;45.30
35495;DHT22;75532;49.300;6.846;2024-01-30T16:17:18;21.60;45.10
35495;DHT22;75532;49.300;6.846;2024-01-30T16:20:19;21.60;45.00
35495;DHT22;75532;49.300;6.846;2024-01-30T16:23:19;21.60;45.00
35495;DHT22;75532;49.300;6.846;2024-01-30T16:26:20;21.60;45.00
35495;DHT22;75532;49.300;6.846;2024-01-30T16:29:21;21.60;44.90
35495;DHT22;75532;49.300;6.846;2024-01-30T16:32:22;21.60;45.00
35495;DHT22;75532;49.300;6.846;2024-01-30T16:35:22;21.60;44.90
35495;DHT22;75532;49.300;6.846;2024-01-30T16:38:23;21.60;45.00
35495;DHT22;75532;49.300;6.846;2024-01-30T16:41:24;21.60;45.00
35495;DHT22;75532;49.300;6.846;2024-01-30T16:44:24;21.60;45.00
35495;DHT22;75532;49.300;6.846;2024-01-30T16:47:25;21.60;45.00
35495;DHT22;75532;49.300;6.846;2024-01-30T16:50:25;21.50;44.80
35495;DHT22;75532;49.300;6.846;2024-01-30T16:53:26;21.50;45.20
35495;DHT22;75532;49.300;6.846;2024-01-30T16:56:26;21.50;45.20
35495;DHT22;75532;49.300;6.846;2024-01-30T16:59:27;21.60;45.10
35495;DHT22;75532;49.300;6.846;2024-01-30T17:02:28;21.60;45.10
35495;DHT22;75532;49.300;6.846;2024-01-30T17:05:28;21.60;45.10
35495;DHT22;75532;49.300;6.846;2024-01-30T17:08:29;21.60;45.10
35495;DHT22;75532;49.300;6.846;2024-01-30T17:11:29;21.60;45.00
35495;DHT22;75532;49.300;6.846;2024-01-30T17:14:30;21.60;45.00
35495;DHT22;75532;49.300;6.846;2024-01-30T17:17:31;21.60;44.90
35495;DHT22;75532;49.300;6.846;2024-01-30T17:20:31;21.70;45.00
35495;DHT22;75532;49.300;6.846;2024-01-30T17:23:32;21.70;44.90
35495;DHT22;75532;49.300;6.846;2024-01-30T17:26:34;21.60;44.80
35495;DHT22;75532;49.300;6.846;2024-01-30T17:29:35;21.70;44.90
35495;DHT22;75532;49.300;6.846;2024-01-30T17:32:35;21.70;44.90
35495;DHT22;75532;49.300;6.846;2024-01-30T17:35:36;21.70;44.90
35495;DHT22;75532;49.300;6.846;2024-01-30T17:38:36;21.70;44.80
35495;DHT22;75532;49.300;6.846;2024-01-30T17:41:37;21.70;44.80
35495;DHT22;75532;49.300;6.846;2024-01-30T17:44:37;21.70;44.80
35495;DHT22;75532;49.300;6.846;2024-01-30T17:47:40;21.70;44.90
35495;DHT22;75532;49.300;6.846;2024-01-30T17:50:40;21.70;44.90
35495;DHT22;75532;49.300;6.846;2024-01-30T17:53:41;21.70;44.90
35495;DHT22;75532;49.300;6.846;2024-01-30T17:56:42;21.70;44.80
35495;DHT22;75532;49.300;6.846;2024-01-30T17:59:42;21.70;44.80
35495;DHT22;75532;49.300;6.846;2024-01-30T18:02:43;21.70;44.90
35495;DHT22;75532;49.300;6.846;2024-01-30T18:05:43;21.70;44.90
35495;DHT22;75532;49.300;6.846;2024-01-30T18:08:44;21.70;44.90
35495;DHT22;75532;49.300;6.846;2024-01-30T18:11:45;21.70;44.90
35495;DHT22;75532;49.300;6.846;2024-01-30T18:14:45;21.70;44.90
35495;DHT22;75532;49.300;6.846;2024-01-30T18:17:46;21.80;45.00
35495;DHT22;75532;49.300;6.846;2024-01-30T18:20:47;21.80;44.90
35495;DHT22;75532;49.300;6.846;2024-01-30T18:23:47;21.80;44.90
35495;DHT22;75532;49.300;6.846;2024-01-30T18:26:48;21.80;44.90
35495;DHT22;75532;49.300;6.846;2024-01-30T18:29:49;21.80;44.90
35495;DHT22;75532;49.300;6.846;2024-01-30T18:32:49;21.80;44.90
35495;DHT22;75532;49.300;6.846;2024-01-30T18:35:50;21.80;44.80
35495;DHT22;75532;49.300;6.846;2024-01-30T18:38:51;21.80;44.80
35495;DHT22;75532;49.300;6.846;2024-01-30T18:41:51;21.80;44.80
35495;DHT22;75532;49.300;6.846;2024-01-30T18:44:52;21.80;44.80
35495;DHT22;75532;49.300;6.846;2024-01-30T18:47:53;21.80;44.80
35495;DHT22;75532;49.300;6.846;2024-01-30T18:50:54;21.80;44.80
35495;DHT22;75532;49.300;6.846;2024-01-30T18:53:55;21.80;44.80
35495;DHT22;75532;49.300;6.846;2024-01-30T18:56:56;21.80;44.90
35495;DHT22;75532;49.300;6.846;2024-01-30T18:59:56;21.80;44.90
35495;DHT22;75532;49.300;6.846;2024-01-30T19:02:57;21.80;44.90